createdAt,value
2018-11-28T20:28:42.558Z,0.22
2018-11-28T20:29:43.927Z,0.07
2018-11-28T20:30:45.293Z,0.12
2018-11-28T20:31:46.668Z,0.13
2018-11-28T20:32:48.039Z,0.12
2018-11-28T20:33:49.403Z,0.19
2018-11-28T20:34:50.774Z,0.12
2018-11-28T20:35:52.135Z,0.08
2018-11-28T20:36:53.512Z,0.13
2018-11-28T20:37:54.879Z,0.12
2018-11-28T20:38:56.244Z,0.12
2018-11-28T20:39:57.613Z,0.08
2018-11-28T20:40:58.978Z,0.07
2018-11-28T20:42:00.349Z,0.13
2018-11-28T20:43:01.721Z,0.13
2018-11-28T20:44:03.083Z,0.16
2018-11-28T20:45:04.464Z,0.15
2018-11-28T20:46:05.831Z,0.16
2018-11-28T20:47:07.193Z,0.17
2018-11-28T20:48:08.565Z,0.10
2018-11-28T20:49:10.018Z,0.12
2018-11-28T20:50:11.380Z,0.15
2018-11-28T20:51:12.755Z,0.10
2018-11-28T20:52:14.143Z,0.13
2018-11-28T20:53:15.510Z,0.12
2018-11-28T20:54:16.872Z,0.15
2018-11-28T20:55:18.246Z,0.13
2018-11-28T20:56:19.606Z,0.16
2018-11-28T20:57:20.978Z,0.08
2018-11-28T20:58:22.354Z,0.08
2018-11-28T20:59:23.724Z,0.07
2018-11-28T21:00:25.089Z,0.05
2018-11-28T21:01:26.464Z,0.08
2018-11-28T21:02:27.838Z,0.08
2018-11-28T21:03:29.216Z,0.10
2018-11-28T21:04:30.584Z,0.16
2018-11-28T21:05:31.959Z,0.05
2018-11-28T21:06:33.323Z,0.02
2018-11-28T21:07:34.717Z,0.08
2018-11-28T21:08:36.062Z,0.12
2018-11-28T21:09:37.431Z,0.10
2018-11-28T21:10:38.802Z,0.10
2018-11-28T21:11:40.173Z,0.01
2018-11-28T21:12:41.540Z,0.07
2018-11-28T21:13:42.920Z,0.10
2018-11-28T21:14:44.299Z,0.04
2018-11-28T21:15:45.659Z,0.04
2018-11-28T21:16:47.039Z,-0.01
2018-11-28T21:17:48.409Z,-0.03
2018-11-28T21:18:49.776Z,0.01
2018-11-28T21:19:51.150Z,0.02
2018-11-28T21:20:52.565Z,0.07
2018-11-28T21:21:53.893Z,-0.03
2018-11-28T21:22:55.257Z,0.01
2018-11-28T21:23:56.625Z,0.04
2018-11-28T21:24:57.998Z,0.01
2018-11-28T21:25:59.374Z,-0.01
2018-11-28T21:27:00.739Z,0.01
2018-11-28T21:28:02.126Z,0.01
2018-11-28T21:29:03.488Z,-0.03
2018-11-28T21:30:04.863Z,-0.01
2018-11-28T21:31:06.239Z,0.02
2018-11-28T21:32:07.611Z,-0.05
2018-11-28T21:33:08.983Z,-0.08
2018-11-28T21:34:10.358Z,-0.06
2018-11-28T21:35:11.734Z,-0.14
2018-11-28T21:36:13.111Z,-0.13
2018-11-28T21:37:14.480Z,-0.09
2018-11-28T21:38:15.861Z,-0.12
2018-11-28T21:39:17.230Z,-0.06
2018-11-28T21:40:18.593Z,-0.13
2018-11-28T21:41:19.967Z,-0.09
2018-11-28T21:42:21.341Z,-0.08
2018-11-28T21:43:22.731Z,-0.12
2018-11-28T21:44:24.105Z,-0.08
2018-11-28T21:45:25.476Z,-0.08
2018-11-28T21:46:26.855Z,-0.12
2018-11-28T21:47:28.233Z,-0.16
2018-11-28T21:48:29.593Z,-0.26
2018-11-28T21:49:30.976Z,-0.13
2018-11-28T21:50:32.364Z,-0.21
2018-11-28T21:51:33.729Z,-0.19
2018-11-28T21:52:35.074Z,-0.20
2018-11-28T21:53:36.447Z,-0.17
2018-11-28T21:54:37.812Z,-0.14
2018-11-28T21:55:39.190Z,-0.20
2018-11-28T21:56:40.563Z,-0.24
2018-11-28T21:57:41.967Z,-0.21
2018-11-28T21:58:43.334Z,-0.24
2018-11-28T21:59:44.708Z,-0.23
2018-11-28T22:00:46.079Z,-0.17
2018-11-28T22:01:47.447Z,-0.27
2018-11-28T22:02:48.833Z,-0.12
2018-11-28T22:03:50.202Z,-0.19
2018-11-28T22:04:51.573Z,-0.19
2018-11-28T22:05:52.960Z,-0.21
2018-11-28T22:06:54.336Z,-0.19
2018-11-28T22:07:55.710Z,-0.17
2018-11-28T22:08:57.076Z,-0.31
2018-11-28T22:09:58.452Z,-0.19
2018-11-28T22:10:59.824Z,-0.32
2018-11-28T22:12:01.204Z,-0.24
2018-11-28T22:13:02.578Z,-0.19
2018-11-28T22:14:03.942Z,-0.21
2018-11-28T22:15:05.352Z,-0.30
2018-11-28T22:16:06.684Z,-0.30
2018-11-28T22:17:08.083Z,-0.31
2018-11-28T22:18:09.451Z,-0.35
2018-11-28T22:19:10.830Z,-0.31
2018-11-28T22:20:12.191Z,-0.31
2018-11-28T22:21:13.571Z,-0.34
2018-11-28T22:22:14.941Z,-0.30
2018-11-28T22:23:16.311Z,-0.31
2018-11-28T22:24:17.691Z,-0.31
2018-11-28T22:25:19.075Z,-0.35
2018-11-28T22:26:20.448Z,-0.26
2018-11-28T22:27:21.827Z,-0.31
2018-11-28T22:28:23.193Z,-0.31
2018-11-28T22:29:24.564Z,-0.27
2018-11-28T22:30:25.936Z,-0.34
2018-11-28T22:31:27.305Z,-0.34
2018-11-28T22:32:28.692Z,-0.27
2018-11-28T22:33:30.054Z,-0.31
2018-11-28T22:34:31.426Z,-0.26
2018-11-28T22:35:32.798Z,-0.38
